Les Eplatures Airport LSGC

Airport Data

Name: Les Eplatures Airport

Ident: LSGC

Lat: 47.08390045

Long: 6.792840004

Elevation: 3368 ft

IataCode:

City: La Chaux-de-Fonds

Homepage: http://www.leseplaturesairport.ch

Metar

2021/09/28 07:20
LSGC 280720Z 04004KT 010V090 9999 FEW006 SCT030 09/07 Q1024

Taf

Add a Webcam Url. We will unlock it as soon is possible. Thank you:
Url: Title: